sensor_id;sensor_type;location;lat;lon;timestamp;pressure;altitude;pressure_sealevel;temperature
5571;BMP180;2808;51.240;6.794;2022-11-04T00:00:19;99731.00;;;11.30
5571;BMP180;2808;51.240;6.794;2022-11-04T00:02:50;99733.00;;;11.20
5571;BMP180;2808;51.240;6.794;2022-11-04T00:05:17;99729.00;;;11.20
5571;BMP180;2808;51.240;6.794;2022-11-04T00:07:47;99734.00;;;11.20
5571;BMP180;2808;51.240;6.794;2022-11-04T00:10:35;99728.00;;;11.20
5571;BMP180;2808;51.240;6.794;2022-11-04T00:13:20;99740.00;;;11.10
5571;BMP180;2808;51.240;6.794;2022-11-04T00:15:48;99740.00;;;11.10
5571;BMP180;2808;51.240;6.794;2022-11-04T00:18:41;99739.00;;;11.10
5571;BMP180;2808;51.240;6.794;2022-11-04T00:21:08;99740.00;;;11.10
5571;BMP180;2808;51.240;6.794;2022-11-04T00:23:53;99742.00;;;11.10
5571;BMP180;2808;51.240;6.794;2022-11-04T00:26:41;99758.00;;;11.20
5571;BMP180;2808;51.240;6.794;2022-11-04T00:29:30;99756.00;;;11.20
5571;BMP180;2808;51.240;6.794;2022-11-04T00:31:57;99768.00;;;11.20
5571;BMP180;2808;51.240;6.794;2022-11-04T00:34:42;99780.00;;;11.20
5571;BMP180;2808;51.240;6.794;2022-11-04T00:37:09;99779.00;;;11.20
5571;BMP180;2808;51.240;6.794;2022-11-04T00:39:37;99776.00;;;11.20
5571;BMP180;2808;51.240;6.794;2022-11-04T00:42:06;99780.00;;;11.20
5571;BMP180;2808;51.240;6.794;2022-11-04T00:44:33;99777.00;;;11.10
5571;BMP180;2808;51.240;6.794;2022-11-04T00:47:03;99778.00;;;11.10
5571;BMP180;2808;51.240;6.794;2022-11-04T00:49:32;99780.00;;;11.10
5571;BMP180;2808;51.240;6.794;2022-11-04T00:52:00;99775.00;;;11.00
5571;BMP180;2808;51.240;6.794;2022-11-04T00:54:27;99788.00;;;11.00
5571;BMP180;2808;51.240;6.794;2022-11-04T00:56:55;99791.00;;;11.00
5571;BMP180;2808;51.240;6.794;2022-11-04T00:59:23;99794.00;;;11.00
5571;BMP180;2808;51.240;6.794;2022-11-04T01:01:51;99798.00;;;11.10
5571;BMP180;2808;51.240;6.794;2022-11-04T01:04:18;99793.00;;;11.10
5571;BMP180;2808;51.240;6.794;2022-11-04T01:06:46;99789.00;;;11.00
5571;BMP180;2808;51.240;6.794;2022-11-04T01:09:14;99799.00;;;11.00
5571;BMP180;2808;51.240;6.794;2022-11-04T01:11:42;99805.00;;;11.00
5571;BMP180;2808;51.240;6.794;2022-11-04T01:14:09;99818.00;;;11.00
5571;BMP180;2808;51.240;6.794;2022-11-04T01:16:38;99821.00;;;11.00
5571;BMP180;2808;51.240;6.794;2022-11-04T01:19:06;99826.00;;;11.00
5571;BMP180;2808;51.240;6.794;2022-11-04T01:21:34;99838.00;;;11.00
5571;BMP180;2808;51.240;6.794;2022-11-04T01:24:01;99832.00;;;11.00
5571;BMP180;2808;51.240;6.794;2022-11-04T01:26:29;99831.00;;;11.00
5571;BMP180;2808;51.240;6.794;2022-11-04T01:28:58;99832.00;;;11.00
5571;BMP180;2808;51.240;6.794;2022-11-04T01:31:27;99838.00;;;11.00
5571;BMP180;2808;51.240;6.794;2022-11-04T01:33:56;99838.00;;;11.00
5571;BMP180;2808;51.240;6.794;2022-11-04T01:36:25;99844.00;;;11.00
5571;BMP180;2808;51.240;6.794;2022-11-04T01:38:54;99838.00;;;10.90
5571;BMP180;2808;51.240;6.794;2022-11-04T01:41:24;99835.00;;;10.90
5571;BMP180;2808;51.240;6.794;2022-11-04T01:43:53;99847.00;;;10.90
5571;BMP180;2808;51.240;6.794;2022-11-04T01:46:30;99848.00;;;10.80
5571;BMP180;2808;51.240;6.794;2022-11-04T01:51:47;99851.00;;;10.80
5571;BMP180;2808;51.240;6.794;2022-11-04T01:54:16;99860.00;;;10.70
5571;BMP180;2808;51.240;6.794;2022-11-04T01:56:44;99859.00;;;10.60
5571;BMP180;2808;51.240;6.794;2022-11-04T01:59:15;99856.00;;;10.60
5571;BMP180;2808;51.240;6.794;2022-11-04T02:01:45;99870.00;;;10.60
5571;BMP180;2808;51.240;6.794;2022-11-04T02:04:14;99873.00;;;10.50
5571;BMP180;2808;51.240;6.794;2022-11-04T02:06:57;99878.00;;;10.50
5571;BMP180;2808;51.240;6.794;2022-11-04T02:09:27;99885.00;;;10.40
5571;BMP180;2808;51.240;6.794;2022-11-04T02:11:56;99879.00;;;10.40
5571;BMP180;2808;51.240;6.794;2022-11-04T02:14:42;99889.00;;;10.40
5571;BMP180;2808;51.240;6.794;2022-11-04T02:17:35;99882.00;;;10.50
5571;BMP180;2808;51.240;6.794;2022-11-04T02:20:24;99879.00;;;10.50
5571;BMP180;2808;51.240;6.794;2022-11-04T02:26:22;99868.00;;;10.50
5571;BMP180;2808;51.240;6.794;2022-11-04T02:32:05;99870.00;;;10.40
5571;BMP180;2808;51.240;6.794;2022-11-04T02:34:41;99859.00;;;10.30
5571;BMP180;2808;51.240;6.794;2022-11-04T02:37:19;99858.00;;;10.30
5571;BMP180;2808;51.240;6.794;2022-11-04T02:39:53;99867.00;;;10.30
5571;BMP180;2808;51.240;6.794;2022-11-04T02:42:26;99863.00;;;10.20
5571;BMP180;2808;51.240;6.794;2022-11-04T02:45:11;99855.00;;;10.20
5571;BMP180;2808;51.240;6.794;2022-11-04T02:47:44;99873.00;;;10.10
5571;BMP180;2808;51.240;6.794;2022-11-04T02:50:21;99857.00;;;10.10
5571;BMP180;2808;51.240;6.794;2022-11-04T02:52:55;99866.00;;;10.10
5571;BMP180;2808;51.240;6.794;2022-11-04T02:55:26;99858.00;;;10.00
5571;BMP180;2808;51.240;6.794;2022-11-04T02:57:58;99865.00;;;10.00
5571;BMP180;2808;51.240;6.794;2022-11-04T03:00:28;99858.00;;;10.00
5571;BMP180;2808;51.240;6.794;2022-11-04T03:02:58;99857.00;;;9.90
5571;BMP180;2808;51.240;6.794;2022-11-04T03:05:32;99854.00;;;9.90
5571;BMP180;2808;51.240;6.794;2022-11-04T03:08:03;99862.00;;;9.90
5571;BMP180;2808;51.240;6.794;2022-11-04T03:10:37;99863.00;;;9.90
5571;BMP180;2808;51.240;6.794;2022-11-04T03:13:10;99874.00;;;9.80
5571;BMP180;2808;51.240;6.794;2022-11-04T03:15:47;99863.00;;;9.80
5571;BMP180;2808;51.240;6.794;2022-11-04T03:18:22;99866.00;;;9.80
5571;BMP180;2808;51.240;6.794;2022-11-04T03:20:51;99854.00;;;9.80
5571;BMP180;2808;51.240;6.794;2022-11-04T03:23:20;99851.00;;;9.80
5571;BMP180;2808;51.240;6.794;2022-11-04T03:26:08;99862.00;;;9.70
5571;BMP180;2808;51.240;6.794;2022-11-04T03:28:44;99851.00;;;9.70
5571;BMP180;2808;51.240;6.794;2022-11-04T03:31:20;99856.00;;;9.70
5571;BMP180;2808;51.240;6.794;2022-11-04T03:33:51;99857.00;;;9.70
5571;BMP180;2808;51.240;6.794;2022-11-04T03:36:21;99858.00;;;9.70
5571;BMP180;2808;51.240;6.794;2022-11-04T03:38:49;99854.00;;;9.70
5571;BMP180;2808;51.240;6.794;2022-11-04T03:41:25;99860.00;;;9.60
5571;BMP180;2808;51.240;6.794;2022-11-04T03:43:54;99873.00;;;9.60
5571;BMP180;2808;51.240;6.794;2022-11-04T03:46:23;99870.00;;;9.60
5571;BMP180;2808;51.240;6.794;2022-11-04T03:48:51;99879.00;;;9.60
5571;BMP180;2808;51.240;6.794;2022-11-04T03:51:28;99879.00;;;9.60
5571;BMP180;2808;51.240;6.794;2022-11-04T03:53:57;99876.00;;;9.60
5571;BMP180;2808;51.240;6.794;2022-11-04T03:56:59;99885.00;;;9.60
5571;BMP180;2808;51.240;6.794;2022-11-04T03:59:47;99877.00;;;9.50
5571;BMP180;2808;51.240;6.794;2022-11-04T04:02:19;99886.00;;;9.60
5571;BMP180;2808;51.240;6.794;2022-11-04T04:04:54;99886.00;;;9.60
5571;BMP180;2808;51.240;6.794;2022-11-04T04:07:28;99875.00;;;9.50
5571;BMP180;2808;51.240;6.794;2022-11-04T04:10:07;99877.00;;;9.50
5571;BMP180;2808;51.240;6.794;2022-11-04T04:12:53;99874.00;;;9.50
5571;BMP180;2808;51.240;6.794;2022-11-04T04:15:25;99869.00;;;9.50
5571;BMP180;2808;51.240;6.794;2022-11-04T04:17:59;99873.00;;;9.50
5571;BMP180;2808;51.240;6.794;2022-11-04T04:20:29;99878.00;;;9.50
5571;BMP180;2808;51.240;6.794;2022-11-04T04:23:02;99878.00;;;9.50
5571;BMP180;2808;51.240;6.794;2022-11-04T04:25:51;99871.00;;;9.50
5571;BMP180;2808;51.240;6.794;2022-11-04T04:28:37;99875.00;;;9.50
5571;BMP180;2808;51.240;6.794;2022-11-04T04:31:07;99872.00;;;9.50
5571;BMP180;2808;51.240;6.794;2022-11-04T04:33:38;99876.00;;;9.50
5571;BMP180;2808;51.240;6.794;2022-11-04T04:36:10;99884.00;;;9.50
5571;BMP180;2808;51.240;6.794;2022-11-04T04:38:41;99883.00;;;9.60
5571;BMP180;2808;51.240;6.794;2022-11-04T04:41:30;99876.00;;;9.60
5571;BMP180;2808;51.240;6.794;2022-11-04T04:44:30;99885.00;;;9.70
5571;BMP180;2808;51.240;6.794;2022-11-04T04:47:18;99879.00;;;9.70
5571;BMP180;2808;51.240;6.794;2022-11-04T04:49:52;99882.00;;;9.70
5571;BMP180;2808;51.240;6.794;2022-11-04T04:52:21;99881.00;;;9.70
5571;BMP180;2808;51.240;6.794;2022-11-04T04:54:49;99886.00;;;9.80
5571;BMP180;2808;51.240;6.794;2022-11-04T04:57:17;99886.00;;;9.80
5571;BMP180;2808;51.240;6.794;2022-11-04T04:59:44;99894.00;;;9.90
5571;BMP180;2808;51.240;6.794;2022-11-04T05:02:15;99895.00;;;9.90
5571;BMP180;2808;51.240;6.794;2022-11-04T05:04:42;99898.00;;;10.00
5571;BMP180;2808;51.240;6.794;2022-11-04T05:07:14;99892.00;;;10.00
5571;BMP180;2808;51.240;6.794;2022-11-04T05:09:52;99889.00;;;10.00
5571;BMP180;2808;51.240;6.794;2022-11-04T05:12:19;99884.00;;;9.90
5571;BMP180;2808;51.240;6.794;2022-11-04T05:14:47;99880.00;;;9.90
5571;BMP180;2808;51.240;6.794;2022-11-04T05:17:14;99889.00;;;9.80
5571;BMP180;2808;51.240;6.794;2022-11-04T05:19:42;99888.00;;;9.80
5571;BMP180;2808;51.240;6.794;2022-11-04T05:22:09;99891.00;;;9.70
5571;BMP180;2808;51.240;6.794;2022-11-04T05:24:38;99889.00;;;9.70
5571;BMP180;2808;51.240;6.794;2022-11-04T05:27:06;99895.00;;;9.70
5571;BMP180;2808;51.240;6.794;2022-11-04T05:29:33;99902.00;;;9.70
5571;BMP180;2808;51.240;6.794;2022-11-04T05:32:00;99895.00;;;9.70
5571;BMP180;2808;51.240;6.794;2022-11-04T05:34:30;99901.00;;;9.60
5571;BMP180;2808;51.240;6.794;2022-11-04T05:36:59;99907.00;;;9.60
5571;BMP180;2808;51.240;6.794;2022-11-04T05:39:26;99901.00;;;9.60
5571;BMP180;2808;51.240;6.794;2022-11-04T05:41:55;99906.00;;;9.60
5571;BMP180;2808;51.240;6.794;2022-11-04T05:44:23;99915.00;;;9.60
5571;BMP180;2808;51.240;6.794;2022-11-04T05:46:51;99905.00;;;9.60
5571;BMP180;2808;51.240;6.794;2022-11-04T05:49:21;99914.00;;;9.60
5571;BMP180;2808;51.240;6.794;2022-11-04T05:51:48;99910.00;;;9.60
5571;BMP180;2808;51.240;6.794;2022-11-04T05:54:16;99908.00;;;9.50
5571;BMP180;2808;51.240;6.794;2022-11-04T05:56:43;99907.00;;;9.50
5571;BMP180;2808;51.240;6.794;2022-11-04T05:59:12;99905.00;;;9.40
5571;BMP180;2808;51.240;6.794;2022-11-04T06:01:40;99909.00;;;9.40
5571;BMP180;2808;51.240;6.794;2022-11-04T06:04:13;99921.00;;;9.40
5571;BMP180;2808;51.240;6.794;2022-11-04T06:06:41;99922.00;;;9.40
5571;BMP180;2808;51.240;6.794;2022-11-04T06:09:10;99936.00;;;9.40
5571;BMP180;2808;51.240;6.794;2022-11-04T06:11:38;99933.00;;;9.30
5571;BMP180;2808;51.240;6.794;2022-11-04T06:14:06;99935.00;;;9.30
5571;BMP180;2808;51.240;6.794;2022-11-04T06:16:34;99937.00;;;9.20
5571;BMP180;2808;51.240;6.794;2022-11-04T06:19:02;99937.00;;;9.10
5571;BMP180;2808;51.240;6.794;2022-11-04T06:21:35;99946.00;;;9.10
5571;BMP180;2808;51.240;6.794;2022-11-04T06:24:02;99957.00;;;9.10
5571;BMP180;2808;51.240;6.794;2022-11-04T06:26:30;99957.00;;;9.00
5571;BMP180;2808;51.240;6.794;2022-11-04T06:29:00;99954.00;;;9.00
5571;BMP180;2808;51.240;6.794;2022-11-04T06:31:27;99969.00;;;9.10
5571;BMP180;2808;51.240;6.794;2022-11-04T06:33:56;99972.00;;;9.10
5571;BMP180;2808;51.240;6.794;2022-11-04T06:36:24;99976.00;;;9.20
5571;BMP180;2808;51.240;6.794;2022-11-04T06:38:51;99975.00;;;9.20
5571;BMP180;2808;51.240;6.794;2022-11-04T06:41:21;99970.00;;;9.20
5571;BMP180;2808;51.240;6.794;2022-11-04T06:43:50;99970.00;;;9.30
5571;BMP180;2808;51.240;6.794;2022-11-04T06:46:25;99966.00;;;9.30
5571;BMP180;2808;51.240;6.794;2022-11-04T06:48:54;99973.00;;;9.40
5571;BMP180;2808;51.240;6.794;2022-11-04T06:51:26;99977.00;;;9.40
5571;BMP180;2808;51.240;6.794;2022-11-04T06:53:56;99989.00;;;9.40
5571;BMP180;2808;51.240;6.794;2022-11-04T06:56:23;99982.00;;;9.50
5571;BMP180;2808;51.240;6.794;2022-11-04T06:58:52;99978.00;;;9.50
5571;BMP180;2808;51.240;6.794;2022-11-04T07:01:21;99986.00;;;9.50
5571;BMP180;2808;51.240;6.794;2022-11-04T07:03:54;99985.00;;;9.60
5571;BMP180;2808;51.240;6.794;2022-11-04T07:06:23;99986.00;;;9.60
5571;BMP180;2808;51.240;6.794;2022-11-04T07:08:52;99989.00;;;9.50
5571;BMP180;2808;51.240;6.794;2022-11-04T07:11:20;99984.00;;;9.50
5571;BMP180;2808;51.240;6.794;2022-11-04T07:13:50;100003.00;;;9.60
5571;BMP180;2808;51.240;6.794;2022-11-04T07:20:31;100003.00;;;9.70
5571;BMP180;2808;51.240;6.794;2022-11-04T07:48:40;100041.00;;;10.00
5571;BMP180;2808;51.240;6.794;2022-11-04T07:51:13;100047.00;;;10.00
5571;BMP180;2808;51.240;6.794;2022-11-04T07:54:26;100048.00;;;10.10
5571;BMP180;2808;51.240;6.794;2022-11-04T08:00:23;100067.00;;;10.20
5571;BMP180;2808;51.240;6.794;2022-11-04T08:06:42;100077.00;;;10.60
5571;BMP180;2808;51.240;6.794;2022-11-04T08:09:14;100077.00;;;10.70
5571;BMP180;2808;51.240;6.794;2022-11-04T08:38:12;100076.00;;;10.40
5571;BMP180;2808;51.240;6.794;2022-11-04T08:41:08;100080.00;;;10.40
5571;BMP180;2808;51.240;6.794;2022-11-04T09:01:18;100085.00;;;10.70
5571;BMP180;2808;51.240;6.794;2022-11-04T09:04:25;100087.00;;;10.70
5571;BMP180;2808;51.240;6.794;2022-11-04T09:07:13;100092.00;;;10.90
5571;BMP180;2808;51.240;6.794;2022-11-04T09:10:27;100103.00;;;10.90
5571;BMP180;2808;51.240;6.794;2022-11-04T09:13:40;100098.00;;;10.90
5571;BMP180;2808;51.240;6.794;2022-11-04T09:28:54;100108.00;;;11.20
5571;BMP180;2808;51.240;6.794;2022-11-04T09:31:48;100108.00;;;11.30
5571;BMP180;2808;51.240;6.794;2022-11-04T09:34:49;100099.00;;;11.50
5571;BMP180;2808;51.240;6.794;2022-11-04T09:51:33;100090.00;;;12.10
5571;BMP180;2808;51.240;6.794;2022-11-04T09:58:36;100108.00;;;11.70
5571;BMP180;2808;51.240;6.794;2022-11-04T10:04:26;100114.00;;;11.50
5571;BMP180;2808;51.240;6.794;2022-11-04T10:07:19;100109.00;;;11.70
5571;BMP180;2808;51.240;6.794;2022-11-04T10:10:00;100109.00;;;11.70
5571;BMP180;2808;51.240;6.794;2022-11-04T10:12:59;100104.00;;;11.90
5571;BMP180;2808;51.240;6.794;2022-11-04T10:15:44;100105.00;;;12.10
5571;BMP180;2808;51.240;6.794;2022-11-04T10:18:39;100113.00;;;12.20
5571;BMP180;2808;51.240;6.794;2022-11-04T10:21:22;100122.00;;;12.20
5571;BMP180;2808;51.240;6.794;2022-11-04T10:24:05;100115.00;;;12.10
5571;BMP180;2808;51.240;6.794;2022-11-04T10:26:44;100115.00;;;12.10
5571;BMP180;2808;51.240;6.794;2022-11-04T10:29:16;100115.00;;;12.20
5571;BMP180;2808;51.240;6.794;2022-11-04T10:31:47;100115.00;;;12.40
5571;BMP180;2808;51.240;6.794;2022-11-04T10:34:26;100112.00;;;12.40
5571;BMP180;2808;51.240;6.794;2022-11-04T10:36:59;100115.00;;;12.60
5571;BMP180;2808;51.240;6.794;2022-11-04T10:39:36;100113.00;;;12.70
5571;BMP180;2808;51.240;6.794;2022-11-04T10:42:10;100116.00;;;12.90
5571;BMP180;2808;51.240;6.794;2022-11-04T10:44:38;100119.00;;;13.10
5571;BMP180;2808;51.240;6.794;2022-11-04T10:47:30;100113.00;;;13.20
5571;BMP180;2808;51.240;6.794;2022-11-04T10:50:23;100112.00;;;13.30
5571;BMP180;2808;51.240;6.794;2022-11-04T10:53:31;100119.00;;;13.40
5571;BMP180;2808;51.240;6.794;2022-11-04T11:00:03;100127.00;;;13.40
5571;BMP180;2808;51.240;6.794;2022-11-04T11:02:46;100137.00;;;13.40
5571;BMP180;2808;51.240;6.794;2022-11-04T11:18:48;100147.00;;;13.20
5571;BMP180;2808;51.240;6.794;2022-11-04T11:21:58;100160.00;;;13.30
5571;BMP180;2808;51.240;6.794;2022-11-04T11:24:26;100158.00;;;13.30
5571;BMP180;2808;51.240;6.794;2022-11-04T11:27:00;100157.00;;;13.20
5571;BMP180;2808;51.240;6.794;2022-11-04T11:29:42;100167.00;;;13.00
5571;BMP180;2808;51.240;6.794;2022-11-04T11:32:26;100173.00;;;12.90
5571;BMP180;2808;51.240;6.794;2022-11-04T11:34:59;100173.00;;;12.80
5571;BMP180;2808;51.240;6.794;2022-11-04T11:37:44;100178.00;;;12.80
5571;BMP180;2808;51.240;6.794;2022-11-04T11:40:27;100177.00;;;12.70
5571;BMP180;2808;51.240;6.794;2022-11-04T11:43:14;100175.00;;;12.60
5571;BMP180;2808;51.240;6.794;2022-11-04T11:45:51;100193.00;;;12.60
5571;BMP180;2808;51.240;6.794;2022-11-04T11:48:49;100194.00;;;12.50
5571;BMP180;2808;51.240;6.794;2022-11-04T11:51:25;100195.00;;;12.50
5571;BMP180;2808;51.240;6.794;2022-11-04T11:56:46;100198.00;;;12.50
5571;BMP180;2808;51.240;6.794;2022-11-04T11:59:20;100194.00;;;12.50
5571;BMP180;2808;51.240;6.794;2022-11-04T12:01:55;100187.00;;;12.40
5571;BMP180;2808;51.240;6.794;2022-11-04T12:04:25;100192.00;;;12.40
5571;BMP180;2808;51.240;6.794;2022-11-04T12:07:08;100201.00;;;12.30
5571;BMP180;2808;51.240;6.794;2022-11-04T12:09:42;100206.00;;;12.30
5571;BMP180;2808;51.240;6.794;2022-11-04T12:12:35;100207.00;;;12.20
5571;BMP180;2808;51.240;6.794;2022-11-04T12:18:07;100207.00;;;12.10
5571;BMP180;2808;51.240;6.794;2022-11-04T12:20:51;100215.00;;;12.10
5571;BMP180;2808;51.240;6.794;2022-11-04T12:23:27;100215.00;;;12.20
5571;BMP180;2808;51.240;6.794;2022-11-04T12:29:32;100217.00;;;12.20
5571;BMP180;2808;51.240;6.794;2022-11-04T12:32:10;100209.00;;;12.20
5571;BMP180;2808;51.240;6.794;2022-11-04T12:34:55;100208.00;;;12.20
5571;BMP180;2808;51.240;6.794;2022-11-04T12:37:32;100201.00;;;12.20
5571;BMP180;2808;51.240;6.794;2022-11-04T12:46:56;100197.00;;;12.20
5571;BMP180;2808;51.240;6.794;2022-11-04T12:57:01;100199.00;;;12.10
5571;BMP180;2808;51.240;6.794;2022-11-04T13:07:15;100203.00;;;12.20
5571;BMP180;2808;51.240;6.794;2022-11-04T13:10:22;100206.00;;;12.20
5571;BMP180;2808;51.240;6.794;2022-11-04T13:13:15;100212.00;;;12.30
5571;BMP180;2808;51.240;6.794;2022-11-04T13:19:27;100221.00;;;12.40
5571;BMP180;2808;51.240;6.794;2022-11-04T13:35:41;100236.00;;;12.40
5571;BMP180;2808;51.240;6.794;2022-11-04T13:38:18;100232.00;;;12.50
5571;BMP180;2808;51.240;6.794;2022-11-04T13:44:26;100262.00;;;12.60
5571;BMP180;2808;51.240;6.794;2022-11-04T13:47:02;100251.00;;;12.60
5571;BMP180;2808;51.240;6.794;2022-11-04T13:49:45;100256.00;;;12.60
5571;BMP180;2808;51.240;6.794;2022-11-04T13:52:17;100257.00;;;12.60
5571;BMP180;2808;51.240;6.794;2022-11-04T13:58:31;100264.00;;;12.50
5571;BMP180;2808;51.240;6.794;2022-11-04T14:01:16;100272.00;;;12.40
5571;BMP180;2808;51.240;6.794;2022-11-04T14:06:54;100280.00;;;12.30
5571;BMP180;2808;51.240;6.794;2022-11-04T14:16:01;100289.00;;;12.20
5571;BMP180;2808;51.240;6.794;2022-11-04T14:18:43;100286.00;;;12.20
5571;BMP180;2808;51.240;6.794;2022-11-04T14:21:24;100303.00;;;12.20
5571;BMP180;2808;51.240;6.794;2022-11-04T14:27:34;100304.00;;;12.30
5571;BMP180;2808;51.240;6.794;2022-11-04T14:33:34;100309.00;;;12.30
5571;BMP180;2808;51.240;6.794;2022-11-04T14:36:24;100309.00;;;12.30
5571;BMP180;2808;51.240;6.794;2022-11-04T14:38:53;100314.00;;;12.20
5571;BMP180;2808;51.240;6.794;2022-11-04T14:44:18;100310.00;;;12.20
5571;BMP180;2808;51.240;6.794;2022-11-04T14:46:52;100315.00;;;12.30
5571;BMP180;2808;51.240;6.794;2022-11-04T14:52:44;100347.00;;;12.20
5571;BMP180;2808;51.240;6.794;2022-11-04T14:55:19;100343.00;;;12.20
5571;BMP180;2808;51.240;6.794;2022-11-04T14:58:30;100344.00;;;12.20
5571;BMP180;2808;51.240;6.794;2022-11-04T15:01:26;100354.00;;;12.20
5571;BMP180;2808;51.240;6.794;2022-11-04T15:04:20;100362.00;;;12.20
5571;BMP180;2808;51.240;6.794;2022-11-04T15:14:35;100372.00;;;12.20
5571;BMP180;2808;51.240;6.794;2022-11-04T15:17:31;100385.00;;;12.10
5571;BMP180;2808;51.240;6.794;2022-11-04T15:20:55;100384.00;;;12.10
5571;BMP180;2808;51.240;6.794;2022-11-04T15:23:27;100393.00;;;12.00
5571;BMP180;2808;51.240;6.794;2022-11-04T15:30:00;100405.00;;;12.00
5571;BMP180;2808;51.240;6.794;2022-11-04T15:36:43;100412.00;;;11.90
5571;BMP180;2808;51.240;6.794;2022-11-04T15:39:19;100411.00;;;11.90
5571;BMP180;2808;51.240;6.794;2022-11-04T15:41:51;100415.00;;;11.80
5571;BMP180;2808;51.240;6.794;2022-11-04T15:44:45;100422.00;;;11.70
5571;BMP180;2808;51.240;6.794;2022-11-04T15:47:55;100416.00;;;11.60
5571;BMP180;2808;51.240;6.794;2022-11-04T15:50:43;100417.00;;;11.50
5571;BMP180;2808;51.240;6.794;2022-11-04T15:56:51;100448.00;;;11.40
5571;BMP180;2808;51.240;6.794;2022-11-04T15:59:39;100442.00;;;11.30
5571;BMP180;2808;51.240;6.794;2022-11-04T16:05:35;100448.00;;;11.30
5571;BMP180;2808;51.240;6.794;2022-11-04T16:08:19;100459.00;;;11.30
5571;BMP180;2808;51.240;6.794;2022-11-04T16:11:12;100453.00;;;11.20
5571;BMP180;2808;51.240;6.794;2022-11-04T16:13:43;100462.00;;;11.30
5571;BMP180;2808;51.240;6.794;2022-11-04T16:16:21;100470.00;;;11.30
5571;BMP180;2808;51.240;6.794;2022-11-04T16:18:54;100465.00;;;11.30
5571;BMP180;2808;51.240;6.794;2022-11-04T16:21:27;100465.00;;;11.30
5571;BMP180;2808;51.240;6.794;2022-11-04T16:24:25;100461.00;;;11.30
5571;BMP180;2808;51.240;6.794;2022-11-04T16:27:08;100470.00;;;11.30
5571;BMP180;2808;51.240;6.794;2022-11-04T16:29:57;100473.00;;;11.20
5571;BMP180;2808;51.240;6.794;2022-11-04T16:33:08;100483.00;;;11.30
5571;BMP180;2808;51.240;6.794;2022-11-04T17:07:54;100515.00;;;11.60
5571;BMP180;2808;51.240;6.794;2022-11-04T17:28:27;100535.00;;;11.60
5571;BMP180;2808;51.240;6.794;2022-11-04T17:33:32;100537.00;;;11.50
5571;BMP180;2808;51.240;6.794;2022-11-04T17:34:43;100544.00;;;11.50
5571;BMP180;2808;51.240;6.794;2022-11-04T17:37:45;100549.00;;;11.50
5571;BMP180;2808;51.240;6.794;2022-11-04T17:40:23;100544.00;;;11.50
5571;BMP180;2808;51.240;6.794;2022-11-04T18:07:17;100591.00;;;11.40
5571;BMP180;2808;51.240;6.794;2022-11-04T18:09:45;100591.00;;;11.40
5571;BMP180;2808;51.240;6.794;2022-11-04T18:12:12;100597.00;;;11.40
5571;BMP180;2808;51.240;6.794;2022-11-04T18:14:57;100599.00;;;11.30
5571;BMP180;2808;51.240;6.794;2022-11-04T18:17:25;100593.00;;;11.30
5571;BMP180;2808;51.240;6.794;2022-11-04T18:19:52;100594.00;;;11.30
5571;BMP180;2808;51.240;6.794;2022-11-04T18:22:22;100595.00;;;11.20
5571;BMP180;2808;51.240;6.794;2022-11-04T18:24:49;100593.00;;;11.20
5571;BMP180;2808;51.240;6.794;2022-11-04T18:27:17;100601.00;;;11.10
5571;BMP180;2808;51.240;6.794;2022-11-04T18:29:44;100601.00;;;11.10
5571;BMP180;2808;51.240;6.794;2022-11-04T18:32:14;100608.00;;;11.10
5571;BMP180;2808;51.240;6.794;2022-11-04T18:34:42;100608.00;;;11.00
5571;BMP180;2808;51.240;6.794;2022-11-04T18:37:09;100607.00;;;11.00
5571;BMP180;2808;51.240;6.794;2022-11-04T18:39:39;100613.00;;;11.00
5571;BMP180;2808;51.240;6.794;2022-11-04T18:42:08;100620.00;;;10.90
5571;BMP180;2808;51.240;6.794;2022-11-04T18:44:39;100627.00;;;10.90
5571;BMP180;2808;51.240;6.794;2022-11-04T18:47:14;100621.00;;;11.00
5571;BMP180;2808;51.240;6.794;2022-11-04T18:49:41;100630.00;;;10.90
5571;BMP180;2808;51.240;6.794;2022-11-04T18:52:09;100628.00;;;10.90
5571;BMP180;2808;51.240;6.794;2022-11-04T18:54:36;100635.00;;;10.90
5571;BMP180;2808;51.240;6.794;2022-11-04T18:57:05;100637.00;;;10.90
5571;BMP180;2808;51.240;6.794;2022-11-04T18:59:35;100648.00;;;10.80
5571;BMP180;2808;51.240;6.794;2022-11-04T19:02:03;100641.00;;;10.80
5571;BMP180;2808;51.240;6.794;2022-11-04T19:04:31;100643.00;;;10.80
5571;BMP180;2808;51.240;6.794;2022-11-04T19:07:02;100640.00;;;10.80
5571;BMP180;2808;51.240;6.794;2022-11-04T19:09:29;100644.00;;;10.70
5571;BMP180;2808;51.240;6.794;2022-11-04T19:11:56;100639.00;;;10.70
5571;BMP180;2808;51.240;6.794;2022-11-04T19:14:41;100637.00;;;10.70
5571;BMP180;2808;51.240;6.794;2022-11-04T19:17:09;100649.00;;;10.60
5571;BMP180;2808;51.240;6.794;2022-11-04T19:19:50;100655.00;;;10.60
5571;BMP180;2808;51.240;6.794;2022-11-04T19:22:18;100655.00;;;10.60
5571;BMP180;2808;51.240;6.794;2022-11-04T19:24:46;100655.00;;;10.60
5571;BMP180;2808;51.240;6.794;2022-11-04T19:27:13;100662.00;;;10.60
5571;BMP180;2808;51.240;6.794;2022-11-04T19:29:44;100661.00;;;10.60
5571;BMP180;2808;51.240;6.794;2022-11-04T19:32:11;100667.00;;;10.60
5571;BMP180;2808;51.240;6.794;2022-11-04T19:34:39;100664.00;;;10.60
5571;BMP180;2808;51.240;6.794;2022-11-04T19:37:09;100678.00;;;10.60
5571;BMP180;2808;51.240;6.794;2022-11-04T19:39:37;100682.00;;;10.60
5571;BMP180;2808;51.240;6.794;2022-11-04T19:42:05;100682.00;;;10.60
5571;BMP180;2808;51.240;6.794;2022-11-04T19:44:51;100682.00;;;10.60
5571;BMP180;2808;51.240;6.794;2022-11-04T19:47:20;100690.00;;;10.60
5571;BMP180;2808;51.240;6.794;2022-11-04T19:49:50;100682.00;;;10.60
5571;BMP180;2808;51.240;6.794;2022-11-04T19:52:19;100685.00;;;10.70
5571;BMP180;2808;51.240;6.794;2022-11-04T19:54:47;100695.00;;;10.70
5571;BMP180;2808;51.240;6.794;2022-11-04T19:57:14;100700.00;;;10.70
5571;BMP180;2808;51.240;6.794;2022-11-04T19:59:45;100693.00;;;10.70
5571;BMP180;2808;51.240;6.794;2022-11-04T20:02:14;100699.00;;;10.70
5571;BMP180;2808;51.240;6.794;2022-11-04T20:04:45;100701.00;;;10.70
5571;BMP180;2808;51.240;6.794;2022-11-04T20:07:16;100705.00;;;10.70
5571;BMP180;2808;51.240;6.794;2022-11-04T20:09:43;100708.00;;;10.70
5571;BMP180;2808;51.240;6.794;2022-11-04T20:12:23;100706.00;;;10.70
5571;BMP180;2808;51.240;6.794;2022-11-04T20:15:08;100722.00;;;10.70
5571;BMP180;2808;51.240;6.794;2022-11-04T20:17:37;100720.00;;;10.70
5571;BMP180;2808;51.240;6.794;2022-11-04T20:20:08;100729.00;;;10.70
5571;BMP180;2808;51.240;6.794;2022-11-04T20:22:36;100730.00;;;10.70
5571;BMP180;2808;51.240;6.794;2022-11-04T20:25:04;100732.00;;;10.70
5571;BMP180;2808;51.240;6.794;2022-11-04T20:27:32;100736.00;;;10.80
5571;BMP180;2808;51.240;6.794;2022-11-04T20:30:00;100736.00;;;10.80
5571;BMP180;2808;51.240;6.794;2022-11-04T20:32:27;100744.00;;;10.80
5571;BMP180;2808;51.240;6.794;2022-11-04T20:34:56;100761.00;;;10.80
5571;BMP180;2808;51.240;6.794;2022-11-04T20:37:24;100768.00;;;10.80